PWSweather.com
Personal Weather Stations
Station Observations
BREEJEDURP
'sGravenzande, WestlandNL

'sGravenzandeWestlandNL

Lat: 52.00095260000001, Lon: 4.174256600000035

Elevation: 3

Station Type: Davis Vantage Pro2 Plus

www.breejedurp.nl

High Low Average
Temperature 50.4°F10.2°C 43.9°F6.6°C 48.0°F8.9°C
Dew Point 47.9°F8.8°C 40.3°F4.6°C 45.0°F7.2°C
Winds 23.0 mph 37.0 kmh 4.0 mph 6.4 kmh 11.0 mph WSW17.7 kmh WSW
Wind Gusts 34.0 mph54.7 kmh 8.0 mph12.9 kmh 18.0 mph29.0 kmh
Humidity 94% 83% 89%
Pressure 30.40 in1029.5 mb 30.16 in1021.3 mb -
Precipitation 0.09 in2.3 mm - -
Hour Temp Dew Point Humidity Winds Wind Gusts Pressure Precip Precip Rate Daily Precip Total
12:04 AM 50.2°F10.1°C 47.9°F8.8°C 92% 6.0 mph SW9.7 kmh SW 10.0 mph16.1 kmh 30.37 in1028.4 mb 0.00 in0.0 mm 0.00 in0.0 mm 0.00 in0.0 mm
12:09 AM 50.0°F10.0°C 47.5°F8.6°C 91% 7.0 mph SW11.3 kmh SW 13.0 mph20.9 kmh 30.37 in1028.4 mb 0.00 in0.0 mm 0.00 in0.0 mm 0.00 in0.0 mm
12:14 AM 49.8°F9.9°C 47.3°F8.5°C 91% 9.0 mph SW14.5 kmh SW 16.0 mph25.7 kmh 30.37 in1028.4 mb 0.00 in0.0 mm 0.00 in0.0 mm 0.00 in0.0 mm
12:19 AM 50.0°F10.0°C 47.5°F8.6°C 91% 7.0 mph SW11.3 kmh SW 12.0 mph19.3 kmh 30.37 in1028.4 mb 0.00 in0.0 mm 0.00 in0.0 mm 0.00 in0.0 mm
12:24 AM 50.2°F10.1°C 47.7°F8.7°C 91% 7.0 mph SW11.3 kmh SW 11.0 mph17.7 kmh 30.36 in1028.1 mb 0.00 in0.0 mm 0.00 in0.0 mm 0.00 in0.0 mm
12:29 AM 50.2°F10.1°C 47.7°F8.7°C 91% 12.0 mph SW19.3 kmh SW 18.0 mph29.0 kmh 30.36 in1028.1 mb 0.00 in0.0 mm 0.00 in0.0 mm 0.00 in0.0 mm
12:34 AM 50.2°F10.1°C 47.7°F8.7°C 91% 11.0 mph SW17.7 kmh SW 21.0 mph33.8 kmh 30.37 in1028.4 mb 0.00 in0.0 mm 0.00 in0.0 mm 0.00 in0.0 mm
12:39 AM 50.4°F10.2°C 47.8°F8.8°C 91% 8.0 mph SW12.9 kmh SW 12.0 mph19.3 kmh 30.36 in1028.1 mb 0.00 in0.0 mm 0.00 in0.0 mm 0.00 in0.0 mm
12:44 AM 50.2°F10.1°C 47.7°F8.7°C 91% 12.0 mph SW19.3 kmh SW 22.0 mph35.4 kmh 30.36 in1028.1 mb 0.00 in0.0 mm 0.00 in0.0 mm 0.00 in0.0 mm
12:49 AM 50.0°F10.0°C 47.5°F8.6°C 91% 10.0 mph SSW16.1 kmh SSW 15.0 mph24.1 kmh 30.36 in1028.1 mb 0.00 in0.0 mm 0.00 in0.0 mm 0.00 in0.0 mm
12:54 AM 49.8°F9.9°C 47.3°F8.5°C 91% 9.0 mph SW14.5 kmh SW 15.0 mph24.1 kmh 30.36 in1028.1 mb 0.00 in0.0 mm 0.00 in0.0 mm 0.00 in0.0 mm
12:59 AM 49.6°F9.8°C 47.1°F8.4°C 91% 11.0 mph SW17.7 kmh SW 17.0 mph27.4 kmh 30.35 in1027.8 mb 0.00 in0.0 mm 0.00 in0.0 mm 0.00 in0.0 mm
01:04 AM 49.8°F9.9°C 47.3°F8.5°C 91% 12.0 mph SW19.3 kmh SW 20.0 mph32.2 kmh 30.36 in1028.1 mb 0.00 in0.0 mm 0.00 in0.0 mm 0.00 in0.0 mm
01:09 AM 49.6°F9.8°C 47.1°F8.4°C 91% 8.0 mph SSW12.9 kmh SSW 14.0 mph22.5 kmh 30.35 in1027.8 mb 0.00 in0.0 mm 0.00 in0.0 mm 0.00 in0.0 mm
01:14 AM 49.5°F9.7°C 46.9°F8.3°C 91% 7.0 mph SW11.3 kmh SW 13.0 mph20.9 kmh 30.35 in1027.8 mb 0.00 in0.0 mm 0.00 in0.0 mm 0.00 in0.0 mm
01:19 AM 49.5°F9.7°C 47.2°F8.4°C 92% 9.0 mph SSW14.5 kmh SSW 13.0 mph20.9 kmh 30.35 in1027.8 mb 0.00 in0.0 mm 0.00 in0.0 mm 0.00 in0.0 mm
01:24 AM 49.5°F9.7°C 47.2°F8.4°C 92% 6.0 mph SSW9.7 kmh SSW 8.0 mph12.9 kmh 30.35 in1027.8 mb 0.00 in0.0 mm 0.00 in0.0 mm 0.00 in0.0 mm
01:29 AM 49.5°F9.7°C 47.2°F8.4°C 92% 7.0 mph SW11.3 kmh SW 12.0 mph19.3 kmh 30.35 in1027.8 mb 0.00 in0.0 mm 0.00 in0.0 mm 0.00 in0.0 mm
01:34 AM 49.5°F9.7°C 47.2°F8.4°C 92% 10.0 mph SW16.1 kmh SW 13.0 mph20.9 kmh 30.35 in1027.8 mb 0.00 in0.0 mm 0.00 in0.0 mm 0.00 in0.0 mm
01:39 AM 49.6°F9.8°C 47.1°F8.4°C 91% 12.0 mph SSW19.3 kmh SSW 20.0 mph32.2 kmh 30.35 in1027.8 mb 0.00 in0.0 mm 0.00 in0.0 mm 0.00 in0.0 mm
01:44 AM 49.6°F9.8°C 47.1°F8.4°C 91% 9.0 mph SSW14.5 kmh SSW 13.0 mph20.9 kmh 30.35 in1027.8 mb 0.00 in0.0 mm 0.00 in0.0 mm 0.00 in0.0 mm
01:49 AM 49.6°F9.8°C 47.1°F8.4°C 91% 9.0 mph SSW14.5 kmh SSW 14.0 mph22.5 kmh 30.35 in1027.8 mb 0.00 in0.0 mm 0.00 in0.0 mm 0.00 in0.0 mm
01:54 AM 49.6°F9.8°C 47.1°F8.4°C 91% 10.0 mph SW16.1 kmh SW 17.0 mph27.4 kmh 30.35 in1027.8 mb 0.00 in0.0 mm 0.00 in0.0 mm 0.00 in0.0 mm
01:59 AM 49.6°F9.8°C 47.1°F8.4°C 91% 8.0 mph SW12.9 kmh SW 17.0 mph27.4 kmh 30.34 in1027.4 mb 0.00 in0.0 mm 0.00 in0.0 mm 0.00 in0.0 mm
02:04 AM 49.6°F9.8°C 47.1°F8.4°C 91% 11.0 mph SW17.7 kmh SW 20.0 mph32.2 kmh 30.34 in1027.4 mb 0.00 in0.0 mm 0.00 in0.0 mm 0.00 in0.0 mm
02:09 AM 49.5°F9.7°C 46.9°F8.3°C 91% 12.0 mph SSE19.3 kmh SSE 17.0 mph27.4 kmh 30.34 in1027.4 mb 0.00 in0.0 mm 0.00 in0.0 mm 0.00 in0.0 mm
02:14 AM 49.5°F9.7°C 46.7°F8.2°C 90% 10.0 mph SSW16.1 kmh SSW 14.0 mph22.5 kmh 30.34 in1027.4 mb 0.00 in0.0 mm 0.00 in0.0 mm 0.00 in0.0 mm
02:19 AM 49.5°F9.7°C 46.7°F8.2°C 90% 7.0 mph SSW11.3 kmh SSW 14.0 mph22.5 kmh 30.33 in1027.1 mb 0.00 in0.0 mm 0.00 in0.0 mm 0.00 in0.0 mm
02:24 AM 49.5°F9.7°C 46.7°F8.2°C 90% 13.0 mph SW20.9 kmh SW 19.0 mph30.6 kmh 30.33 in1027.1 mb 0.00 in0.0 mm 0.00 in0.0 mm 0.00 in0.0 mm
02:29 AM 49.3°F9.6°C 46.5°F8.1°C 90% 9.0 mph SW14.5 kmh SW 15.0 mph24.1 kmh 30.33 in1027.1 mb 0.00 in0.0 mm 0.00 in0.0 mm 0.00 in0.0 mm
02:34 AM 49.3°F9.6°C 46.8°F8.2°C 91% 8.0 mph SW12.9 kmh SW 13.0 mph20.9 kmh 30.33 in1027.1 mb 0.00 in0.0 mm 0.00 in0.0 mm 0.00 in0.0 mm
02:39 AM 49.3°F9.6°C 46.8°F8.2°C 91% 13.0 mph SSW20.9 kmh SSW 18.0 mph29.0 kmh 30.33 in1027.1 mb 0.00 in0.0 mm 0.00 in0.0 mm 0.00 in0.0 mm
02:44 AM 49.3°F9.6°C 46.8°F8.2°C 91% 9.0 mph SSW14.5 kmh SSW 13.0 mph20.9 kmh 30.33 in1027.1 mb 0.00 in0.0 mm 0.00 in0.0 mm 0.00 in0.0 mm
02:49 AM 49.3°F9.6°C 46.5°F8.1°C 90% 9.0 mph SW14.5 kmh SW 15.0 mph24.1 kmh 30.32 in1026.8 mb 0.00 in0.0 mm 0.00 in0.0 mm 0.00 in0.0 mm
02:54 AM 49.5°F9.7°C 46.7°F8.2°C 90% 8.0 mph SW12.9 kmh SW 16.0 mph25.7 kmh 30.33 in1027.1 mb 0.00 in0.0 mm 0.00 in0.0 mm 0.00 in0.0 mm
02:59 AM 49.5°F9.7°C 46.7°F8.2°C 90% 12.0 mph SW19.3 kmh SW 20.0 mph32.2 kmh 30.33 in1027.1 mb 0.00 in0.0 mm 0.00 in0.0 mm 0.00 in0.0 mm
03:04 AM 49.5°F9.7°C 46.7°F8.2°C 90% 9.0 mph S14.5 kmh S 18.0 mph29.0 kmh 30.33 in1027.1 mb 0.00 in0.0 mm 0.00 in0.0 mm 0.00 in0.0 mm
03:09 AM 49.5°F9.7°C 46.7°F8.2°C 90% 13.0 mph SW20.9 kmh SW 22.0 mph35.4 kmh 30.32 in1026.8 mb 0.00 in0.0 mm 0.00 in0.0 mm 0.00 in0.0 mm
03:14 AM 49.3°F9.6°C 46.5°F8.1°C 90% 13.0 mph WSW20.9 kmh WSW 21.0 mph33.8 kmh 30.33 in1027.1 mb 0.00 in0.0 mm 0.00 in0.0 mm 0.00 in0.0 mm
03:19 AM 49.3°F9.6°C 46.8°F8.2°C 91% 12.0 mph SW19.3 kmh SW 18.0 mph29.0 kmh 30.32 in1026.8 mb 0.00 in0.0 mm 0.00 in0.0 mm 0.00 in0.0 mm
03:24 AM 48.9°F9.4°C 46.4°F8.0°C 91% 10.0 mph SW16.1 kmh SW 15.0 mph24.1 kmh 30.33 in1027.1 mb 0.00 in0.0 mm 0.00 in0.0 mm 0.00 in0.0 mm
03:29 AM 48.9°F9.4°C 46.7°F8.2°C 92% 11.0 mph SSW17.7 kmh SSW 18.0 mph29.0 kmh 30.32 in1026.8 mb 0.00 in0.0 mm 0.00 in0.0 mm 0.00 in0.0 mm
03:34 AM 48.7°F9.3°C 46.5°F8.1°C 92% 10.0 mph SW16.1 kmh SW 16.0 mph25.7 kmh 30.32 in1026.8 mb 0.00 in0.0 mm 0.00 in0.0 mm 0.00 in0.0 mm
03:39 AM 48.6°F9.2°C 46.3°F7.9°C 92% 10.0 mph SSW16.1 kmh SSW 14.0 mph22.5 kmh 30.32 in1026.8 mb 0.00 in0.0 mm 0.00 in0.0 mm 0.00 in0.0 mm
03:44 AM 48.6°F9.2°C 46.6°F8.1°C 93% 14.0 mph SW22.5 kmh SW 20.0 mph32.2 kmh 30.32 in1026.8 mb 0.00 in0.0 mm 0.00 in0.0 mm 0.00 in0.0 mm
03:49 AM 48.4°F9.1°C 46.5°F8.1°C 93% 15.0 mph SSW24.1 kmh SSW 21.0 mph33.8 kmh 30.32 in1026.8 mb 0.00 in0.0 mm 0.00 in0.0 mm 0.00 in0.0 mm
03:54 AM 48.4°F9.1°C 46.5°F8.1°C 93% 10.0 mph S16.1 kmh S 15.0 mph24.1 kmh 30.32 in1026.8 mb 0.00 in0.0 mm 0.00 in0.0 mm 0.00 in0.0 mm
03:59 AM 48.4°F9.1°C 46.5°F8.1°C 93% 12.0 mph SW19.3 kmh SW 17.0 mph27.4 kmh 30.32 in1026.8 mb 0.00 in0.0 mm 0.00 in0.0 mm 0.00 in0.0 mm
04:04 AM 48.4°F9.1°C 46.5°F8.1°C 93% 9.0 mph SSE14.5 kmh SSE 18.0 mph29.0 kmh 30.32 in1026.8 mb 0.00 in0.0 mm 0.00 in0.0 mm 0.00 in0.0 mm
04:09 AM 48.4°F9.1°C 46.5°F8.1°C 93% 11.0 mph SW17.7 kmh SW 22.0 mph35.4 kmh 30.31 in1026.4 mb 0.00 in0.0 mm 0.00 in0.0 mm 0.00 in0.0 mm
04:14 AM 48.4°F9.1°C 46.2°F7.9°C 92% 9.0 mph WSW14.5 kmh WSW 21.0 mph33.8 kmh 30.31 in1026.4 mb 0.00 in0.0 mm 0.00 in0.0 mm 0.00 in0.0 mm
04:19 AM 48.0°F8.9°C 45.8°F7.7°C 92% 11.0 mph SSW17.7 kmh SSW 20.0 mph32.2 kmh 30.31 in1026.4 mb 0.00 in0.0 mm 0.00 in0.0 mm 0.00 in0.0 mm
04:24 AM 48.0°F8.9°C 46.1°F7.8°C 93% 12.0 mph SSW19.3 kmh SSW 18.0 mph29.0 kmh 30.31 in1026.4 mb 0.00 in0.0 mm 0.00 in0.0 mm 0.00 in0.0 mm
04:29 AM 48.0°F8.9°C 46.1°F7.8°C 93% 8.0 mph SSW12.9 kmh SSW 14.0 mph22.5 kmh 30.31 in1026.4 mb 0.00 in0.0 mm 0.00 in0.0 mm 0.00 in0.0 mm
04:34 AM 48.0°F8.9°C 46.1°F7.8°C 93% 9.0 mph SSW14.5 kmh SSW 13.0 mph20.9 kmh 30.30 in1026.1 mb 0.00 in0.0 mm 0.00 in0.0 mm 0.00 in0.0 mm
04:39 AM 48.0°F8.9°C 45.8°F7.7°C 92% 10.0 mph SW16.1 kmh SW 15.0 mph24.1 kmh 30.30 in1026.1 mb 0.00 in0.0 mm 0.00 in0.0 mm 0.00 in0.0 mm
04:44 AM 48.0°F8.9°C 45.8°F7.7°C 92% 14.0 mph SW22.5 kmh SW 24.0 mph38.6 kmh 30.30 in1026.1 mb 0.00 in0.0 mm 0.00 in0.0 mm 0.00 in0.0 mm
04:49 AM 48.0°F8.9°C 45.8°F7.7°C 92% 12.0 mph SW19.3 kmh SW 20.0 mph32.2 kmh 30.30 in1026.1 mb 0.00 in0.0 mm 0.00 in0.0 mm 0.00 in0.0 mm
04:54 AM 48.0°F8.9°C 45.8°F7.7°C 92% 13.0 mph SW20.9 kmh SW 20.0 mph32.2 kmh 30.29 in1025.7 mb 0.00 in0.0 mm 0.00 in0.0 mm 0.00 in0.0 mm
04:59 AM 48.2°F9.0°C 46.0°F7.8°C 92% 13.0 mph WSW20.9 kmh WSW 25.0 mph40.2 kmh 30.29 in1025.7 mb 0.00 in0.0 mm 0.00 in0.0 mm 0.00 in0.0 mm
05:04 AM 48.2°F9.0°C 46.0°F7.8°C 92% 12.0 mph SW19.3 kmh SW 19.0 mph30.6 kmh 30.29 in1025.7 mb 0.00 in0.0 mm 0.00 in0.0 mm 0.00 in0.0 mm
05:09 AM 48.4°F9.1°C 45.9°F7.7°C 91% 9.0 mph S14.5 kmh S 16.0 mph25.7 kmh 30.29 in1025.7 mb 0.00 in0.0 mm 0.00 in0.0 mm 0.00 in0.0 mm
05:14 AM 48.4°F9.1°C 45.9°F7.7°C 91% 12.0 mph SSW19.3 kmh SSW 27.0 mph43.5 kmh 30.30 in1026.1 mb 0.00 in0.0 mm 0.00 in0.0 mm 0.00 in0.0 mm
05:19 AM 48.4°F9.1°C 45.9°F7.7°C 91% 14.0 mph SSW22.5 kmh SSW 23.0 mph37.0 kmh 30.30 in1026.1 mb 0.00 in0.0 mm 0.00 in0.0 mm 0.00 in0.0 mm
05:24 AM 48.4°F9.1°C 45.9°F7.7°C 91% 11.0 mph SW17.7 kmh SW 20.0 mph32.2 kmh 30.29 in1025.7 mb 0.00 in0.0 mm 0.00 in0.0 mm 0.00 in0.0 mm
05:29 AM 48.6°F9.2°C 45.8°F7.7°C 90% 14.0 mph SW22.5 kmh SW 22.0 mph35.4 kmh 30.30 in1026.1 mb 0.00 in0.0 mm 0.00 in0.0 mm 0.00 in0.0 mm
05:34 AM 48.4°F9.1°C 45.6°F7.6°C 90% 13.0 mph WSW20.9 kmh WSW 18.0 mph29.0 kmh 30.30 in1026.1 mb 0.00 in0.0 mm 0.00 in0.0 mm 0.00 in0.0 mm
05:39 AM 48.4°F9.1°C 45.6°F7.6°C 90% 11.0 mph SSW17.7 kmh SSW 17.0 mph27.4 kmh 30.30 in1026.1 mb 0.00 in0.0 mm 0.00 in0.0 mm 0.00 in0.0 mm
05:44 AM 48.4°F9.1°C 45.6°F7.6°C 90% 10.0 mph SW16.1 kmh SW 15.0 mph24.1 kmh 30.29 in1025.7 mb 0.00 in0.0 mm 0.00 in0.0 mm 0.00 in0.0 mm
05:49 AM 48.4°F9.1°C 45.6°F7.6°C 90% 11.0 mph SW17.7 kmh SW 19.0 mph30.6 kmh 30.29 in1025.7 mb 0.00 in0.0 mm 0.00 in0.0 mm 0.00 in0.0 mm
05:54 AM 48.2°F9.0°C 45.4°F7.4°C 90% 11.0 mph SW17.7 kmh SW 20.0 mph32.2 kmh 30.29 in1025.7 mb 0.00 in0.0 mm 0.00 in0.0 mm 0.00 in0.0 mm
06:00 AM 48.2°F9.0°C 45.4°F7.4°C 90% 12.0 mph SW19.3 kmh SW 21.0 mph33.8 kmh 30.29 in1025.7 mb 0.00 in0.0 mm 0.00 in0.0 mm 0.00 in0.0 mm
06:04 AM 48.0°F8.9°C 45.2°F7.3°C 90% 14.0 mph SW22.5 kmh SW 20.0 mph32.2 kmh 30.29 in1025.7 mb 0.00 in0.0 mm 0.00 in0.0 mm 0.00 in0.0 mm
06:09 AM 48.2°F9.0°C 45.4°F7.4°C 90% 16.0 mph SW25.7 kmh SW 24.0 mph38.6 kmh 30.29 in1025.7 mb 0.00 in0.0 mm 0.00 in0.0 mm 0.00 in0.0 mm
06:14 AM 48.4°F9.1°C 45.6°F7.6°C 90% 11.0 mph SW17.7 kmh SW 19.0 mph30.6 kmh 30.29 in1025.7 mb 0.00 in0.0 mm 0.00 in0.0 mm 0.00 in0.0 mm
06:19 AM 48.4°F9.1°C 45.3°F7.4°C 89% 13.0 mph SW20.9 kmh SW 19.0 mph30.6 kmh 30.28 in1025.4 mb 0.00 in0.0 mm 0.00 in0.0 mm 0.00 in0.0 mm
06:24 AM 48.4°F9.1°C 45.3°F7.4°C 89% 13.0 mph SW20.9 kmh SW 20.0 mph32.2 kmh 30.28 in1025.4 mb 0.00 in0.0 mm 0.00 in0.0 mm 0.00 in0.0 mm
06:29 AM 48.6°F9.2°C 45.5°F7.5°C 89% 13.0 mph WSW20.9 kmh WSW 24.0 mph38.6 kmh 30.28 in1025.4 mb 0.00 in0.0 mm 0.00 in0.0 mm 0.00 in0.0 mm
06:34 AM 48.6°F9.2°C 45.5°F7.5°C 89% 17.0 mph SW27.4 kmh SW 23.0 mph37.0 kmh 30.28 in1025.4 mb 0.00 in0.0 mm 0.00 in0.0 mm 0.00 in0.0 mm
06:39 AM 48.7°F9.3°C 45.6°F7.6°C 89% 16.0 mph SW25.7 kmh SW 27.0 mph43.5 kmh 30.28 in1025.4 mb 0.00 in0.0 mm 0.00 in0.0 mm 0.00 in0.0 mm
06:44 AM 48.7°F9.3°C 45.3°F7.4°C 88% 13.0 mph SW20.9 kmh SW 19.0 mph30.6 kmh 30.28 in1025.4 mb 0.00 in0.0 mm 0.00 in0.0 mm 0.00 in0.0 mm
06:49 AM 48.7°F9.3°C 45.3°F7.4°C 88% 14.0 mph SW22.5 kmh SW 24.0 mph38.6 kmh 30.28 in1025.4 mb 0.00 in0.0 mm 0.00 in0.0 mm 0.00 in0.0 mm
06:54 AM 48.7°F9.3°C 45.3°F7.4°C 88% 14.0 mph SW22.5 kmh SW 24.0 mph38.6 kmh 30.28 in1025.4 mb 0.00 in0.0 mm 0.00 in0.0 mm 0.00 in0.0 mm
06:59 AM 48.7°F9.3°C 45.3°F7.4°C 88% 14.0 mph SW22.5 kmh SW 20.0 mph32.2 kmh 30.28 in1025.4 mb 0.00 in0.0 mm 0.00 in0.0 mm 0.00 in0.0 mm
07:04 AM 48.7°F9.3°C 45.3°F7.4°C 88% 14.0 mph SW22.5 kmh SW 26.0 mph41.8 kmh 30.28 in1025.4 mb 0.00 in0.0 mm 0.00 in0.0 mm 0.00 in0.0 mm
07:09 AM 48.7°F9.3°C 45.3°F7.4°C 88% 14.0 mph SW22.5 kmh SW 20.0 mph32.2 kmh 30.28 in1025.4 mb 0.00 in0.0 mm 0.00 in0.0 mm 0.00 in0.0 mm
07:14 AM 48.6°F9.2°C 45.2°F7.3°C 88% 14.0 mph SW22.5 kmh SW 21.0 mph33.8 kmh 30.28 in1025.4 mb 0.00 in0.0 mm 0.00 in0.0 mm 0.00 in0.0 mm
07:19 AM 48.6°F9.2°C 45.2°F7.3°C 88% 16.0 mph SW25.7 kmh SW 22.0 mph35.4 kmh 30.28 in1025.4 mb 0.00 in0.0 mm 0.00 in0.0 mm 0.00 in0.0 mm
07:24 AM 48.6°F9.2°C 45.2°F7.3°C 88% 13.0 mph SW20.9 kmh SW 21.0 mph33.8 kmh 30.28 in1025.4 mb 0.00 in0.0 mm 0.00 in0.0 mm 0.00 in0.0 mm
07:29 AM 48.6°F9.2°C 45.2°F7.3°C 88% 11.0 mph S17.7 kmh S 23.0 mph37.0 kmh 30.27 in1025.1 mb 0.00 in0.0 mm 0.00 in0.0 mm 0.00 in0.0 mm
07:34 AM 48.6°F9.2°C 45.2°F7.3°C 88% 13.0 mph SW20.9 kmh SW 19.0 mph30.6 kmh 30.28 in1025.4 mb 0.00 in0.0 mm 0.00 in0.0 mm 0.00 in0.0 mm
07:39 AM 48.6°F9.2°C 45.2°F7.3°C 88% 11.0 mph SW17.7 kmh SW 18.0 mph29.0 kmh 30.27 in1025.1 mb 0.00 in0.0 mm 0.00 in0.0 mm 0.00 in0.0 mm
07:44 AM 48.6°F9.2°C 45.2°F7.3°C 88% 10.0 mph SW16.1 kmh SW 20.0 mph32.2 kmh 30.27 in1025.1 mb 0.00 in0.0 mm 0.00 in0.0 mm 0.00 in0.0 mm
07:49 AM 48.6°F9.2°C 45.2°F7.3°C 88% 13.0 mph SSW20.9 kmh SSW 20.0 mph32.2 kmh 30.27 in1025.1 mb 0.00 in0.0 mm 0.00 in0.0 mm 0.00 in0.0 mm
07:54 AM 48.7°F9.3°C 45.3°F7.4°C 88% 9.0 mph SW14.5 kmh SW 14.0 mph22.5 kmh 30.27 in1025.1 mb 0.00 in0.0 mm 0.00 in0.0 mm 0.00 in0.0 mm
07:59 AM 48.9°F9.4°C 45.5°F7.5°C 88% 12.0 mph SW19.3 kmh SW 21.0 mph33.8 kmh 30.27 in1025.1 mb 0.00 in0.0 mm 0.00 in0.0 mm 0.00 in0.0 mm
08:04 AM 48.9°F9.4°C 45.5°F7.5°C 88% 15.0 mph SW24.1 kmh SW 20.0 mph32.2 kmh 30.27 in1025.1 mb 0.00 in0.0 mm 0.00 in0.0 mm 0.00 in0.0 mm
08:09 AM 48.7°F9.3°C 45.0°F7.2°C 87% 13.0 mph SW20.9 kmh SW 21.0 mph33.8 kmh 30.27 in1025.1 mb 0.00 in0.0 mm 0.00 in0.0 mm 0.00 in0.0 mm
08:14 AM 48.7°F9.3°C 45.3°F7.4°C 88% 13.0 mph WSW20.9 kmh WSW 19.0 mph30.6 kmh 30.27 in1025.1 mb 0.00 in0.0 mm 0.00 in0.0 mm 0.00 in0.0 mm
08:19 AM 48.7°F9.3°C 45.3°F7.4°C 88% 15.0 mph SW24.1 kmh SW 25.0 mph40.2 kmh 30.27 in1025.1 mb 0.00 in0.0 mm 0.00 in0.0 mm 0.00 in0.0 mm
08:24 AM 48.7°F9.3°C 45.3°F7.4°C 88% 15.0 mph SW24.1 kmh SW 23.0 mph37.0 kmh 30.27 in1025.1 mb 0.00 in0.0 mm 0.00 in0.0 mm 0.00 in0.0 mm
08:29 AM 48.7°F9.3°C 45.3°F7.4°C 88% 16.0 mph SW25.7 kmh SW 29.0 mph46.7 kmh 30.27 in1025.1 mb 0.00 in0.0 mm 0.00 in0.0 mm 0.00 in0.0 mm
08:34 AM 48.7°F9.3°C 45.3°F7.4°C 88% 14.0 mph SW22.5 kmh SW 22.0 mph35.4 kmh 30.27 in1025.1 mb 0.00 in0.0 mm 0.00 in0.0 mm 0.00 in0.0 mm
08:39 AM 48.9°F9.4°C 45.5°F7.5°C 88% 14.0 mph SW22.5 kmh SW 20.0 mph32.2 kmh 30.27 in1025.1 mb 0.00 in0.0 mm 0.00 in0.0 mm 0.00 in0.0 mm
08:44 AM 48.9°F9.4°C 45.5°F7.5°C 88% 17.0 mph SW27.4 kmh SW 24.0 mph38.6 kmh 30.27 in1025.1 mb 0.00 in0.0 mm 0.00 in0.0 mm 0.00 in0.0 mm
08:49 AM 48.9°F9.4°C 45.5°F7.5°C 88% 15.0 mph SW24.1 kmh SW 22.0 mph35.4 kmh 30.27 in1025.1 mb 0.00 in0.0 mm 0.00 in0.0 mm 0.00 in0.0 mm
08:54 AM 48.9°F9.4°C 45.5°F7.5°C 88% 13.0 mph SW20.9 kmh SW 20.0 mph32.2 kmh 30.27 in1025.1 mb 0.00 in0.0 mm 0.00 in0.0 mm 0.00 in0.0 mm
08:59 AM 48.9°F9.4°C 45.5°F7.5°C 88% 13.0 mph SSW20.9 kmh SSW 19.0 mph30.6 kmh 30.26 in1024.7 mb 0.00 in0.0 mm 0.00 in0.0 mm 0.00 in0.0 mm
09:04 AM 48.7°F9.3°C 45.3°F7.4°C 88% 14.0 mph WSW22.5 kmh WSW 20.0 mph32.2 kmh 30.27 in1025.1 mb 0.00 in0.0 mm 0.00 in0.0 mm 0.00 in0.0 mm
09:09 AM 48.7°F9.3°C 45.3°F7.4°C 88% 12.0 mph SW19.3 kmh SW 22.0 mph35.4 kmh 30.26 in1024.7 mb 0.00 in0.0 mm 0.00 in0.0 mm 0.00 in0.0 mm
09:14 AM 48.7°F9.3°C 45.3°F7.4°C 88% 12.0 mph SW19.3 kmh SW 21.0 mph33.8 kmh 30.27 in1025.1 mb 0.00 in0.0 mm 0.00 in0.0 mm 0.00 in0.0 mm
09:19 AM 48.7°F9.3°C 45.3°F7.4°C 88% 13.0 mph SW20.9 kmh SW 21.0 mph33.8 kmh 30.26 in1024.7 mb 0.00 in0.0 mm 0.00 in0.0 mm 0.00 in0.0 mm
09:24 AM 48.7°F9.3°C 45.3°F7.4°C 88% 13.0 mph SW20.9 kmh SW 21.0 mph33.8 kmh 30.26 in1024.7 mb 0.00 in0.0 mm 0.00 in0.0 mm 0.00 in0.0 mm
09:29 AM 48.7°F9.3°C 45.3°F7.4°C 88% 11.0 mph SSW17.7 kmh SSW 19.0 mph30.6 kmh 30.26 in1024.7 mb 0.00 in0.0 mm 0.00 in0.0 mm 0.00 in0.0 mm
09:34 AM 48.7°F9.3°C 45.3°F7.4°C 88% 15.0 mph SW24.1 kmh SW 24.0 mph38.6 kmh 30.26 in1024.7 mb 0.00 in0.0 mm 0.00 in0.0 mm 0.00 in0.0 mm
09:39 AM 48.9°F9.4°C 45.2°F7.3°C 87% 15.0 mph SW24.1 kmh SW 23.0 mph37.0 kmh 30.26 in1024.7 mb 0.00 in0.0 mm 0.00 in0.0 mm 0.00 in0.0 mm
09:44 AM 48.9°F9.4°C 45.2°F7.3°C 87% 8.0 mph SSW12.9 kmh SSW 16.0 mph25.7 kmh 30.26 in1024.7 mb 0.00 in0.0 mm 0.00 in0.0 mm 0.01 in0.3 mm
09:49 AM 48.9°F9.4°C 45.2°F7.3°C 87% 14.0 mph SW22.5 kmh SW 18.0 mph29.0 kmh 30.26 in1024.7 mb 0.00 in0.0 mm 0.00 in0.0 mm 0.01 in0.3 mm
09:54 AM 48.9°F9.4°C 45.2°F7.3°C 87% 12.0 mph SW19.3 kmh SW 21.0 mph33.8 kmh 30.26 in1024.7 mb 0.00 in0.0 mm 0.00 in0.0 mm 0.01 in0.3 mm
09:59 AM 48.9°F9.4°C 45.2°F7.3°C 87% 13.0 mph SW20.9 kmh SW 18.0 mph29.0 kmh 30.25 in1024.4 mb 0.00 in0.0 mm 0.00 in0.0 mm 0.01 in0.3 mm
10:03 AM 49.1°F9.5°C 45.4°F7.4°C 87% 12.0 mph SW19.3 kmh SW 16.0 mph25.7 kmh 30.25 in1024.4 mb 0.00 in0.0 mm 0.00 in0.0 mm 0.01 in0.3 mm
10:09 AM 48.9°F9.4°C 45.2°F7.3°C 87% 13.0 mph SW20.9 kmh SW 24.0 mph38.6 kmh 30.25 in1024.4 mb 0.00 in0.0 mm 0.00 in0.0 mm 0.01 in0.3 mm
10:14 AM 49.1°F9.5°C 45.4°F7.4°C 87% 15.0 mph SSW24.1 kmh SSW 23.0 mph37.0 kmh 30.25 in1024.4 mb 0.00 in0.0 mm 0.00 in0.0 mm 0.01 in0.3 mm
10:19 AM 49.3°F9.6°C 45.3°F7.4°C 86% 14.0 mph SW22.5 kmh SW 23.0 mph37.0 kmh 30.25 in1024.4 mb 0.00 in0.0 mm 0.00 in0.0 mm 0.01 in0.3 mm
10:24 AM 49.3°F9.6°C 45.3°F7.4°C 86% 12.0 mph WSW19.3 kmh WSW 21.0 mph33.8 kmh 30.25 in1024.4 mb 0.00 in0.0 mm 0.00 in0.0 mm 0.01 in0.3 mm
10:29 AM 49.5°F9.7°C 45.5°F7.5°C 86% 13.0 mph SW20.9 kmh SW 18.0 mph29.0 kmh 30.25 in1024.4 mb 0.00 in0.0 mm 0.00 in0.0 mm 0.01 in0.3 mm
10:34 AM 49.3°F9.6°C 45.3°F7.4°C 86% 14.0 mph SW22.5 kmh SW 22.0 mph35.4 kmh 30.25 in1024.4 mb 0.00 in0.0 mm 0.00 in0.0 mm 0.01 in0.3 mm
10:39 AM 49.3°F9.6°C 45.3°F7.4°C 86% 15.0 mph SW24.1 kmh SW 24.0 mph38.6 kmh 30.26 in1024.7 mb 0.00 in0.0 mm 0.00 in0.0 mm 0.01 in0.3 mm
10:44 AM 49.5°F9.7°C 45.5°F7.5°C 86% 11.0 mph SSW17.7 kmh SSW 18.0 mph29.0 kmh 30.26 in1024.7 mb 0.00 in0.0 mm 0.00 in0.0 mm 0.01 in0.3 mm
10:49 AM 49.5°F9.7°C 45.5°F7.5°C 86% 11.0 mph SW17.7 kmh SW 19.0 mph30.6 kmh 30.26 in1024.7 mb 0.00 in0.0 mm 0.00 in0.0 mm 0.01 in0.3 mm
10:54 AM 49.5°F9.7°C 45.5°F7.5°C 86% 11.0 mph SSW17.7 kmh SSW 17.0 mph27.4 kmh 30.26 in1024.7 mb 0.00 in0.0 mm 0.00 in0.0 mm 0.01 in0.3 mm
10:59 AM 49.5°F9.7°C 45.1°F7.3°C 85% 14.0 mph SW22.5 kmh SW 19.0 mph30.6 kmh 30.26 in1024.7 mb 0.00 in0.0 mm 0.00 in0.0 mm 0.01 in0.3 mm
11:04 AM 49.6°F9.8°C 45.3°F7.4°C 85% 13.0 mph SW20.9 kmh SW 26.0 mph41.8 kmh 30.26 in1024.7 mb 0.00 in0.0 mm 0.00 in0.0 mm 0.01 in0.3 mm
11:09 AM 49.8°F9.9°C 45.2°F7.3°C 84% 17.0 mph SW27.4 kmh SW 24.0 mph38.6 kmh 30.25 in1024.4 mb 0.00 in0.0 mm 0.00 in0.0 mm 0.01 in0.3 mm
11:14 AM 49.8°F9.9°C 45.2°F7.3°C 84% 15.0 mph SW24.1 kmh SW 28.0 mph45.1 kmh 30.25 in1024.4 mb 0.00 in0.0 mm 0.00 in0.0 mm 0.01 in0.3 mm
11:19 AM 50.0°F10.0°C 45.4°F7.4°C 84% 14.0 mph SW22.5 kmh SW 20.0 mph32.2 kmh 30.25 in1024.4 mb 0.00 in0.0 mm 0.00 in0.0 mm 0.01 in0.3 mm
11:24 AM 50.0°F10.0°C 45.0°F7.2°C 83% 16.0 mph SW25.7 kmh SW 21.0 mph33.8 kmh 30.25 in1024.4 mb 0.00 in0.0 mm 0.00 in0.0 mm 0.01 in0.3 mm
11:29 AM 50.2°F10.1°C 45.2°F7.3°C 83% 12.0 mph SSW19.3 kmh SSW 19.0 mph30.6 kmh 30.25 in1024.4 mb 0.00 in0.0 mm 0.00 in0.0 mm 0.01 in0.3 mm
11:34 AM 50.2°F10.1°C 45.2°F7.3°C 83% 14.0 mph SW22.5 kmh SW 22.0 mph35.4 kmh 30.25 in1024.4 mb 0.00 in0.0 mm 0.00 in0.0 mm 0.01 in0.3 mm
11:39 AM 50.2°F10.1°C 45.2°F7.3°C 83% 13.0 mph SW20.9 kmh SW 20.0 mph32.2 kmh 30.24 in1024.0 mb 0.00 in0.0 mm 0.00 in0.0 mm 0.01 in0.3 mm
11:44 AM 50.2°F10.1°C 45.2°F7.3°C 83% 16.0 mph SW25.7 kmh SW 23.0 mph37.0 kmh 30.24 in1024.0 mb 0.00 in0.0 mm 0.00 in0.0 mm 0.01 in0.3 mm
11:49 AM 50.0°F10.0°C 45.0°F7.2°C 83% 15.0 mph WSW24.1 kmh WSW 27.0 mph43.5 kmh 30.24 in1024.0 mb 0.00 in0.0 mm 0.00 in0.0 mm 0.01 in0.3 mm
11:54 AM 50.0°F10.0°C 45.0°F7.2°C 83% 14.0 mph SSW22.5 kmh SSW 20.0 mph32.2 kmh 30.24 in1024.0 mb 0.00 in0.0 mm 0.00 in0.0 mm 0.01 in0.3 mm
11:59 AM 50.2°F10.1°C 45.5°F7.5°C 84% 16.0 mph SW25.7 kmh SW 29.0 mph46.7 kmh 30.24 in1024.0 mb 0.00 in0.0 mm 0.00 in0.0 mm 0.01 in0.3 mm
12:04 PM 50.0°F10.0°C 45.4°F7.4°C 84% 12.0 mph SW19.3 kmh SW 25.0 mph40.2 kmh 30.24 in1024.0 mb 0.00 in0.0 mm 0.00 in0.0 mm 0.01 in0.3 mm
12:09 PM 49.8°F9.9°C 45.5°F7.5°C 85% 12.0 mph SW19.3 kmh SW 20.0 mph32.2 kmh 30.24 in1024.0 mb 0.00 in0.0 mm 0.00 in0.0 mm 0.01 in0.3 mm
12:14 PM 49.8°F9.9°C 45.5°F7.5°C 85% 17.0 mph SW27.4 kmh SW 23.0 mph37.0 kmh 30.24 in1024.0 mb 0.00 in0.0 mm 0.00 in0.0 mm 0.01 in0.3 mm
12:19 PM 49.8°F9.9°C 45.5°F7.5°C 85% 12.0 mph SSW19.3 kmh SSW 23.0 mph37.0 kmh 30.23 in1023.7 mb 0.00 in0.0 mm 0.00 in0.0 mm 0.01 in0.3 mm
12:24 PM 49.8°F9.9°C 45.5°F7.5°C 85% 13.0 mph SW20.9 kmh SW 19.0 mph30.6 kmh 30.23 in1023.7 mb 0.00 in0.0 mm 0.00 in0.0 mm 0.01 in0.3 mm
12:29 PM 50.0°F10.0°C 45.4°F7.4°C 84% 12.0 mph SW19.3 kmh SW 18.0 mph29.0 kmh 30.23 in1023.7 mb 0.00 in0.0 mm 0.00 in0.0 mm 0.01 in0.3 mm
12:34 PM 50.2°F10.1°C 45.5°F7.5°C 84% 12.0 mph SW19.3 kmh SW 22.0 mph35.4 kmh 30.22 in1023.4 mb 0.00 in0.0 mm 0.00 in0.0 mm 0.01 in0.3 mm
12:39 PM 50.2°F10.1°C 45.5°F7.5°C 84% 9.0 mph WSW14.5 kmh WSW 17.0 mph27.4 kmh 30.22 in1023.4 mb 0.00 in0.0 mm 0.00 in0.0 mm 0.01 in0.3 mm
12:44 PM 50.2°F10.1°C 45.2°F7.3°C 83% 14.0 mph SW22.5 kmh SW 21.0 mph33.8 kmh 30.22 in1023.4 mb 0.00 in0.0 mm 0.00 in0.0 mm 0.01 in0.3 mm
12:49 PM 50.2°F10.1°C 45.2°F7.3°C 83% 17.0 mph SW27.4 kmh SW 21.0 mph33.8 kmh 30.22 in1023.4 mb 0.00 in0.0 mm 0.00 in0.0 mm 0.01 in0.3 mm
12:54 PM 50.0°F10.0°C 45.0°F7.2°C 83% 14.0 mph SSW22.5 kmh SSW 21.0 mph33.8 kmh 30.22 in1023.4 mb 0.00 in0.0 mm 0.00 in0.0 mm 0.01 in0.3 mm
12:59 PM 50.2°F10.1°C 45.2°F7.3°C 83% 17.0 mph SW27.4 kmh SW 24.0 mph38.6 kmh 30.21 in1023.0 mb 0.00 in0.0 mm 0.00 in0.0 mm 0.01 in0.3 mm
01:04 PM 50.2°F10.1°C 45.2°F7.3°C 83% 11.0 mph SSW17.7 kmh SSW 21.0 mph33.8 kmh 30.21 in1023.0 mb 0.00 in0.0 mm 0.00 in0.0 mm 0.01 in0.3 mm
01:09 PM 50.2°F10.1°C 45.5°F7.5°C 84% 13.0 mph WSW20.9 kmh WSW 24.0 mph38.6 kmh 30.21 in1023.0 mb 0.00 in0.0 mm 0.00 in0.0 mm 0.01 in0.3 mm
01:14 PM 50.2°F10.1°C 45.5°F7.5°C 84% 11.0 mph SSW17.7 kmh SSW 18.0 mph29.0 kmh 30.20 in1022.7 mb 0.00 in0.0 mm 0.00 in0.0 mm 0.01 in0.3 mm
01:19 PM 50.2°F10.1°C 45.5°F7.5°C 84% 20.0 mph SW32.2 kmh SW 29.0 mph46.7 kmh 30.20 in1022.7 mb 0.00 in0.0 mm 0.00 in0.0 mm 0.01 in0.3 mm
01:24 PM 50.2°F10.1°C 45.5°F7.5°C 84% 17.0 mph SSW27.4 kmh SSW 25.0 mph40.2 kmh 30.20 in1022.7 mb 0.00 in0.0 mm 0.00 in0.0 mm 0.01 in0.3 mm
01:29 PM 50.2°F10.1°C 45.5°F7.5°C 84% 20.0 mph SSW32.2 kmh SSW 25.0 mph40.2 kmh 30.19 in1022.4 mb 0.00 in0.0 mm 0.00 in0.0 mm 0.01 in0.3 mm
01:34 PM 50.2°F10.1°C 45.5°F7.5°C 84% 19.0 mph SW30.6 kmh SW 28.0 mph45.1 kmh 30.19 in1022.4 mb 0.00 in0.0 mm 0.00 in0.0 mm 0.01 in0.3 mm
01:39 PM 50.2°F10.1°C 45.5°F7.5°C 84% 17.0 mph SSW27.4 kmh SSW 23.0 mph37.0 kmh 30.19 in1022.4 mb 0.00 in0.0 mm 0.00 in0.0 mm 0.01 in0.3 mm
01:44 PM 50.4°F10.2°C 46.0°F7.8°C 85% 14.0 mph SW22.5 kmh SW 19.0 mph30.6 kmh 30.19 in1022.4 mb 0.00 in0.0 mm 0.00 in0.0 mm 0.01 in0.3 mm
01:49 PM 50.4°F10.2°C 46.0°F7.8°C 85% 18.0 mph WSW29.0 kmh WSW 25.0 mph40.2 kmh 30.18 in1022.0 mb 0.00 in0.0 mm 0.00 in0.0 mm 0.01 in0.3 mm
01:54 PM 50.4°F10.2°C 46.0°F7.8°C 85% 14.0 mph S22.5 kmh S 25.0 mph40.2 kmh 30.18 in1022.0 mb 0.00 in0.0 mm 0.00 in0.0 mm 0.01 in0.3 mm
01:59 PM 50.2°F10.1°C 45.8°F7.7°C 85% 20.0 mph SW32.2 kmh SW 27.0 mph43.5 kmh 30.18 in1022.0 mb 0.00 in0.0 mm 0.00 in0.0 mm 0.01 in0.3 mm
02:04 PM 50.0°F10.0°C 45.7°F7.6°C 85% 16.0 mph WSW25.7 kmh WSW 26.0 mph41.8 kmh 30.18 in1022.0 mb 0.00 in0.0 mm 0.00 in0.0 mm 0.01 in0.3 mm
02:09 PM 49.8°F9.9°C 45.5°F7.5°C 85% 17.0 mph SW27.4 kmh SW 23.0 mph37.0 kmh 30.18 in1022.0 mb 0.00 in0.0 mm 0.00 in0.0 mm 0.01 in0.3 mm
02:14 PM 49.8°F9.9°C 45.5°F7.5°C 85% 13.0 mph SW20.9 kmh SW 20.0 mph32.2 kmh 30.18 in1022.0 mb 0.00 in0.0 mm 0.00 in0.0 mm 0.01 in0.3 mm
02:19 PM 49.8°F9.9°C 45.5°F7.5°C 85% 12.0 mph SW19.3 kmh SW 21.0 mph33.8 kmh 30.17 in1021.7 mb 0.00 in0.0 mm 0.00 in0.0 mm 0.01 in0.3 mm
02:24 PM 50.0°F10.0°C 45.7°F7.6°C 85% 13.0 mph SW20.9 kmh SW 19.0 mph30.6 kmh 30.17 in1021.7 mb 0.00 in0.0 mm 0.00 in0.0 mm 0.01 in0.3 mm
02:29 PM 50.2°F10.1°C 45.8°F7.7°C 85% 12.0 mph SSW19.3 kmh SSW 18.0 mph29.0 kmh 30.16 in1021.3 mb 0.00 in0.0 mm 0.00 in0.0 mm 0.01 in0.3 mm
02:34 PM 50.0°F10.0°C 45.7°F7.6°C 85% 15.0 mph SW24.1 kmh SW 24.0 mph38.6 kmh 30.17 in1021.7 mb 0.00 in0.0 mm 0.00 in0.0 mm 0.01 in0.3 mm
02:39 PM 49.8°F9.9°C 45.5°F7.5°C 85% 14.0 mph SSW22.5 kmh SSW 25.0 mph40.2 kmh 30.16 in1021.3 mb 0.00 in0.0 mm 0.00 in0.0 mm 0.01 in0.3 mm
02:44 PM 49.8°F9.9°C 45.8°F7.7°C 86% 12.0 mph SW19.3 kmh SW 18.0 mph29.0 kmh 30.16 in1021.3 mb 0.00 in0.0 mm 0.00 in0.0 mm 0.01 in0.3 mm
02:49 PM 49.8°F9.9°C 45.5°F7.5°C 85% 17.0 mph SW27.4 kmh SW 23.0 mph37.0 kmh 30.16 in1021.3 mb 0.00 in0.0 mm 0.00 in0.0 mm 0.01 in0.3 mm
02:54 PM 49.8°F9.9°C 45.8°F7.7°C 86% 12.0 mph SW19.3 kmh SW 21.0 mph33.8 kmh 30.16 in1021.3 mb 0.00 in0.0 mm 0.00 in0.0 mm 0.01 in0.3 mm
02:59 PM 49.8°F9.9°C 45.8°F7.7°C 86% 13.0 mph SSW20.9 kmh SSW 21.0 mph33.8 kmh 30.16 in1021.3 mb 0.00 in0.0 mm 0.00 in0.0 mm 0.01 in0.3 mm
03:04 PM 49.6°F9.8°C 45.6°F7.6°C 86% 16.0 mph SW25.7 kmh SW 24.0 mph38.6 kmh 30.16 in1021.3 mb 0.00 in0.0 mm 0.00 in0.0 mm 0.01 in0.3 mm
03:09 PM 49.6°F9.8°C 45.6°F7.6°C 86% 17.0 mph SW27.4 kmh SW 30.0 mph48.3 kmh 30.16 in1021.3 mb 0.00 in0.0 mm 0.00 in0.0 mm 0.01 in0.3 mm
03:14 PM 49.5°F9.7°C 46.1°F7.8°C 88% 12.0 mph SW19.3 kmh SW 18.0 mph29.0 kmh 30.16 in1021.3 mb 0.00 in0.0 mm 0.00 in0.0 mm 0.01 in0.3 mm
03:19 PM 49.3°F9.6°C 46.2°F7.9°C 89% 16.0 mph SW25.7 kmh SW 33.0 mph53.1 kmh 30.16 in1021.3 mb 0.00 in0.0 mm 0.00 in0.0 mm 0.01 in0.3 mm
03:24 PM 48.9°F9.4°C 45.8°F7.7°C 89% 14.0 mph SW22.5 kmh SW 18.0 mph29.0 kmh 30.16 in1021.3 mb 0.00 in0.0 mm 0.00 in0.0 mm 0.01 in0.3 mm
03:29 PM 48.9°F9.4°C 45.8°F7.7°C 89% 14.0 mph SW22.5 kmh SW 18.0 mph29.0 kmh 30.16 in1021.3 mb 0.00 in0.0 mm 0.00 in0.0 mm 0.02 in0.5 mm
03:34 PM 48.7°F9.3°C 45.9°F7.7°C 90% 14.0 mph SW22.5 kmh SW 18.0 mph29.0 kmh 30.16 in1021.3 mb 0.00 in0.0 mm 0.00 in0.0 mm 0.02 in0.5 mm
03:39 PM 48.7°F9.3°C 46.2°F7.9°C 91% 12.0 mph SW19.3 kmh SW 17.0 mph27.4 kmh 30.16 in1021.3 mb 0.00 in0.0 mm 0.00 in0.0 mm 0.03 in0.8 mm
03:44 PM 48.6°F9.2°C 46.1°F7.8°C 91% 13.0 mph SW20.9 kmh SW 27.0 mph43.5 kmh 30.16 in1021.3 mb 0.00 in0.0 mm 0.00 in0.0 mm 0.05 in1.3 mm
03:49 PM 48.6°F9.2°C 46.1°F7.8°C 91% 16.0 mph SW25.7 kmh SW 28.0 mph45.1 kmh 30.16 in1021.3 mb 0.00 in0.0 mm 0.00 in0.0 mm 0.06 in1.5 mm
03:54 PM 48.4°F9.1°C 46.2°F7.9°C 92% 17.0 mph WSW27.4 kmh WSW 23.0 mph37.0 kmh 30.16 in1021.3 mb 0.00 in0.0 mm 0.00 in0.0 mm 0.06 in1.5 mm
03:59 PM 48.4°F9.1°C 46.2°F7.9°C 92% 13.0 mph SW20.9 kmh SW 21.0 mph33.8 kmh 30.16 in1021.3 mb 0.00 in0.0 mm 0.00 in0.0 mm 0.06 in1.5 mm
04:04 PM 48.4°F9.1°C 46.2°F7.9°C 92% 15.0 mph SW24.1 kmh SW 22.0 mph35.4 kmh 30.16 in1021.3 mb 0.00 in0.0 mm 0.00 in0.0 mm 0.06 in1.5 mm
04:09 PM 48.6°F9.2°C 46.3°F7.9°C 92% 15.0 mph SW24.1 kmh SW 26.0 mph41.8 kmh 30.16 in1021.3 mb 0.00 in0.0 mm 0.00 in0.0 mm 0.06 in1.5 mm
04:14 PM 48.6°F9.2°C 46.6°F8.1°C 93% 12.0 mph SW19.3 kmh SW 19.0 mph30.6 kmh 30.16 in1021.3 mb 0.00 in0.0 mm 0.00 in0.0 mm 0.06 in1.5 mm
04:19 PM 48.6°F9.2°C 46.6°F8.1°C 93% 14.0 mph SW22.5 kmh SW 21.0 mph33.8 kmh 30.16 in1021.3 mb 0.00 in0.0 mm 0.00 in0.0 mm 0.06 in1.5 mm
04:24 PM 48.6°F9.2°C 46.6°F8.1°C 93% 13.0 mph SW20.9 kmh SW 23.0 mph37.0 kmh 30.17 in1021.7 mb 0.00 in0.0 mm 0.00 in0.0 mm 0.06 in1.5 mm
04:29 PM 48.7°F9.3°C 46.8°F8.2°C 93% 15.0 mph S24.1 kmh S 25.0 mph40.2 kmh 30.16 in1021.3 mb 0.00 in0.0 mm 0.00 in0.0 mm 0.06 in1.5 mm
04:34 PM 48.9°F9.4°C 47.0°F8.3°C 93% 13.0 mph SSW20.9 kmh SSW 21.0 mph33.8 kmh 30.16 in1021.3 mb 0.00 in0.0 mm 0.00 in0.0 mm 0.06 in1.5 mm
04:39 PM 49.1°F9.5°C 47.2°F8.4°C 93% 12.0 mph WSW19.3 kmh WSW 19.0 mph30.6 kmh 30.16 in1021.3 mb 0.00 in0.0 mm 0.00 in0.0 mm 0.06 in1.5 mm
04:44 PM 49.1°F9.5°C 46.9°F8.3°C 92% 12.0 mph SSW19.3 kmh SSW 15.0 mph24.1 kmh 30.17 in1021.7 mb 0.00 in0.0 mm 0.00 in0.0 mm 0.06 in1.5 mm
04:49 PM 49.1°F9.5°C 46.9°F8.3°C 92% 15.0 mph WSW24.1 kmh WSW 25.0 mph40.2 kmh 30.17 in1021.7 mb 0.00 in0.0 mm 0.00 in0.0 mm 0.06 in1.5 mm
04:54 PM 48.9°F9.4°C 46.7°F8.2°C 92% 16.0 mph W25.7 kmh W 24.0 mph38.6 kmh 30.18 in1022.0 mb 0.00 in0.0 mm 0.00 in0.0 mm 0.06 in1.5 mm
04:59 PM 48.6°F9.2°C 46.6°F8.1°C 93% 23.0 mph W37.0 kmh W 33.0 mph53.1 kmh 30.19 in1022.4 mb 0.00 in0.0 mm 0.00 in0.0 mm 0.08 in2.0 mm
05:04 PM 48.6°F9.2°C 46.6°F8.1°C 93% 19.0 mph W30.6 kmh W 34.0 mph54.7 kmh 30.19 in1022.4 mb 0.00 in0.0 mm 0.00 in0.0 mm 0.09 in2.3 mm
05:09 PM 48.2°F9.0°C 46.3°F7.9°C 93% 16.0 mph W25.7 kmh W 24.0 mph38.6 kmh 30.19 in1022.4 mb 0.00 in0.0 mm 0.00 in0.0 mm 0.09 in2.3 mm
05:14 PM 48.0°F8.9°C 46.1°F7.8°C 93% 19.0 mph WNW30.6 kmh WNW 26.0 mph41.8 kmh 30.21 in1023.0 mb 0.00 in0.0 mm 0.00 in0.0 mm 0.09 in2.3 mm
05:19 PM 47.7°F8.7°C 45.7°F7.6°C 93% 14.0 mph WNW22.5 kmh WNW 22.0 mph35.4 kmh 30.21 in1023.0 mb 0.00 in0.0 mm 0.00 in0.0 mm 0.09 in2.3 mm
05:24 PM 47.5°F8.6°C 45.6°F7.6°C 93% 13.0 mph W20.9 kmh W 19.0 mph30.6 kmh 30.21 in1023.0 mb 0.00 in0.0 mm 0.00 in0.0 mm 0.09 in2.3 mm
05:29 PM 47.3°F8.5°C 45.4°F7.4°C 93% 12.0 mph WNW19.3 kmh WNW 18.0 mph29.0 kmh 30.22 in1023.4 mb 0.00 in0.0 mm 0.00 in0.0 mm 0.09 in2.3 mm
05:34 PM 47.1°F8.4°C 45.2°F7.3°C 93% 10.0 mph WNW16.1 kmh WNW 15.0 mph24.1 kmh 30.22 in1023.4 mb 0.00 in0.0 mm 0.00 in0.0 mm 0.09 in2.3 mm
05:39 PM 46.9°F8.3°C 45.3°F7.4°C 94% 10.0 mph WNW16.1 kmh WNW 14.0 mph22.5 kmh 30.22 in1023.4 mb 0.00 in0.0 mm 0.00 in0.0 mm 0.09 in2.3 mm
05:44 PM 46.8°F8.2°C 45.1°F7.3°C 94% 13.0 mph NW20.9 kmh NW 17.0 mph27.4 kmh 30.22 in1023.4 mb 0.00 in0.0 mm 0.00 in0.0 mm 0.09 in2.3 mm
05:49 PM 46.8°F8.2°C 45.1°F7.3°C 94% 12.0 mph WNW19.3 kmh WNW 18.0 mph29.0 kmh 30.23 in1023.7 mb 0.00 in0.0 mm 0.00 in0.0 mm 0.09 in2.3 mm
05:54 PM 46.8°F8.2°C 45.1°F7.3°C 94% 12.0 mph WNW19.3 kmh WNW 17.0 mph27.4 kmh 30.23 in1023.7 mb 0.00 in0.0 mm 0.00 in0.0 mm 0.09 in2.3 mm
05:59 PM 46.6°F8.1°C 44.9°F7.2°C 94% 11.0 mph WNW17.7 kmh WNW 15.0 mph24.1 kmh 30.23 in1023.7 mb 0.00 in0.0 mm 0.00 in0.0 mm 0.09 in2.3 mm
06:04 PM 46.4°F8.0°C 44.8°F7.1°C 94% 9.0 mph NW14.5 kmh NW 12.0 mph19.3 kmh 30.24 in1024.0 mb 0.00 in0.0 mm 0.00 in0.0 mm 0.09 in2.3 mm
06:09 PM 46.2°F7.9°C 44.6°F7.0°C 94% 11.0 mph WNW17.7 kmh WNW 16.0 mph25.7 kmh 30.24 in1024.0 mb 0.00 in0.0 mm 0.00 in0.0 mm 0.09 in2.3 mm
06:14 PM 46.0°F7.8°C 44.4°F6.9°C 94% 7.0 mph NW11.3 kmh NW 11.0 mph17.7 kmh 30.24 in1024.0 mb 0.00 in0.0 mm 0.00 in0.0 mm 0.09 in2.3 mm
06:19 PM 45.9°F7.7°C 44.2°F6.8°C 94% 9.0 mph WNW14.5 kmh WNW 14.0 mph22.5 kmh 30.24 in1024.0 mb 0.00 in0.0 mm 0.00 in0.0 mm 0.09 in2.3 mm
06:24 PM 45.7°F7.6°C 44.1°F6.7°C 94% 9.0 mph WNW14.5 kmh WNW 11.0 mph17.7 kmh 30.24 in1024.0 mb 0.00 in0.0 mm 0.00 in0.0 mm 0.09 in2.3 mm
06:29 PM 45.7°F7.6°C 44.1°F6.7°C 94% 5.0 mph W8.0 kmh W 10.0 mph16.1 kmh 30.24 in1024.0 mb 0.00 in0.0 mm 0.00 in0.0 mm 0.09 in2.3 mm
06:34 PM 45.7°F7.6°C 44.1°F6.7°C 94% 6.0 mph NW9.7 kmh NW 8.0 mph12.9 kmh 30.25 in1024.4 mb 0.00 in0.0 mm 0.00 in0.0 mm 0.09 in2.3 mm
06:39 PM 45.5°F7.5°C 43.9°F6.6°C 94% 8.0 mph WNW12.9 kmh WNW 10.0 mph16.1 kmh 30.25 in1024.4 mb 0.00 in0.0 mm 0.00 in0.0 mm 0.09 in2.3 mm
06:44 PM 45.3°F7.4°C 43.7°F6.5°C 94% 6.0 mph WNW9.7 kmh WNW 11.0 mph17.7 kmh 30.26 in1024.7 mb 0.00 in0.0 mm 0.00 in0.0 mm 0.09 in2.3 mm
06:49 PM 45.1°F7.3°C 43.5°F6.4°C 94% 5.0 mph WNW8.0 kmh WNW 10.0 mph16.1 kmh 30.26 in1024.7 mb 0.00 in0.0 mm 0.00 in0.0 mm 0.09 in2.3 mm
06:54 PM 45.0°F7.2°C 43.3°F6.3°C 94% 7.0 mph NW11.3 kmh NW 10.0 mph16.1 kmh 30.26 in1024.7 mb 0.00 in0.0 mm 0.00 in0.0 mm 0.09 in2.3 mm
06:59 PM 44.8°F7.1°C 43.2°F6.2°C 94% 6.0 mph WNW9.7 kmh WNW 10.0 mph16.1 kmh 30.27 in1025.1 mb 0.00 in0.0 mm 0.00 in0.0 mm 0.09 in2.3 mm
07:04 PM 44.8°F7.1°C 43.2°F6.2°C 94% 8.0 mph NW12.9 kmh NW 11.0 mph17.7 kmh 30.27 in1025.1 mb 0.00 in0.0 mm 0.00 in0.0 mm 0.09 in2.3 mm
07:09 PM 44.8°F7.1°C 43.2°F6.2°C 94% 6.0 mph NW9.7 kmh NW 11.0 mph17.7 kmh 30.28 in1025.4 mb 0.00 in0.0 mm 0.00 in0.0 mm 0.09 in2.3 mm
07:14 PM 44.8°F7.1°C 43.2°F6.2°C 94% 6.0 mph NW9.7 kmh NW 10.0 mph16.1 kmh 30.28 in1025.4 mb 0.00 in0.0 mm 0.00 in0.0 mm 0.09 in2.3 mm
07:19 PM 44.8°F7.1°C 43.2°F6.2°C 94% 9.0 mph WNW14.5 kmh WNW 11.0 mph17.7 kmh 30.28 in1025.4 mb 0.00 in0.0 mm 0.00 in0.0 mm 0.09 in2.3 mm
07:24 PM 44.8°F7.1°C 43.2°F6.2°C 94% 6.0 mph NW9.7 kmh NW 10.0 mph16.1 kmh 30.28 in1025.4 mb 0.00 in0.0 mm 0.00 in0.0 mm 0.09 in2.3 mm
07:29 PM 44.8°F7.1°C 43.2°F6.2°C 94% 6.0 mph W9.7 kmh W 10.0 mph16.1 kmh 30.28 in1025.4 mb 0.00 in0.0 mm 0.00 in0.0 mm 0.09 in2.3 mm
07:34 PM 44.8°F7.1°C 43.2°F6.2°C 94% 7.0 mph W11.3 kmh W 10.0 mph16.1 kmh 30.28 in1025.4 mb 0.00 in0.0 mm 0.00 in0.0 mm 0.09 in2.3 mm
07:39 PM 44.8°F7.1°C 43.2°F6.2°C 94% 5.0 mph WNW8.0 kmh WNW 10.0 mph16.1 kmh 30.29 in1025.7 mb 0.00 in0.0 mm 0.00 in0.0 mm 0.09 in2.3 mm
07:44 PM 44.8°F7.1°C 43.2°F6.2°C 94% 7.0 mph WNW11.3 kmh WNW 12.0 mph19.3 kmh 30.29 in1025.7 mb 0.00 in0.0 mm 0.00 in0.0 mm 0.09 in2.3 mm
07:49 PM 44.8°F7.1°C 43.2°F6.2°C 94% 6.0 mph WNW9.7 kmh WNW 10.0 mph16.1 kmh 30.30 in1026.1 mb 0.00 in0.0 mm 0.00 in0.0 mm 0.09 in2.3 mm
07:54 PM 44.8°F7.1°C 43.2°F6.2°C 94% 7.0 mph WNW11.3 kmh WNW 11.0 mph17.7 kmh 30.30 in1026.1 mb 0.00 in0.0 mm 0.00 in0.0 mm 0.09 in2.3 mm
07:59 PM 44.8°F7.1°C 43.2°F6.2°C 94% 8.0 mph WNW12.9 kmh WNW 11.0 mph17.7 kmh 30.30 in1026.1 mb 0.00 in0.0 mm 0.00 in0.0 mm 0.09 in2.3 mm
08:04 PM 44.8°F7.1°C 43.2°F6.2°C 94% 7.0 mph WNW11.3 kmh WNW 9.0 mph14.5 kmh 30.30 in1026.1 mb 0.00 in0.0 mm 0.00 in0.0 mm 0.09 in2.3 mm
08:09 PM 45.0°F7.2°C 43.3°F6.3°C 94% 6.0 mph WNW9.7 kmh WNW 9.0 mph14.5 kmh 30.31 in1026.4 mb 0.00 in0.0 mm 0.00 in0.0 mm 0.09 in2.3 mm
08:14 PM 45.0°F7.2°C 43.3°F6.3°C 94% 6.0 mph W9.7 kmh W 9.0 mph14.5 kmh 30.31 in1026.4 mb 0.00 in0.0 mm 0.00 in0.0 mm 0.09 in2.3 mm
08:19 PM 44.8°F7.1°C 42.9°F6.1°C 93% 9.0 mph WNW14.5 kmh WNW 12.0 mph19.3 kmh 30.32 in1026.8 mb 0.00 in0.0 mm 0.00 in0.0 mm 0.09 in2.3 mm
08:24 PM 44.8°F7.1°C 42.9°F6.1°C 93% 7.0 mph WNW11.3 kmh WNW 12.0 mph19.3 kmh 30.32 in1026.8 mb 0.00 in0.0 mm 0.00 in0.0 mm 0.09 in2.3 mm
08:29 PM 44.8°F7.1°C 42.9°F6.1°C 93% 8.0 mph WNW12.9 kmh WNW 11.0 mph17.7 kmh 30.32 in1026.8 mb 0.00 in0.0 mm 0.00 in0.0 mm 0.09 in2.3 mm
08:34 PM 44.8°F7.1°C 42.6°F5.9°C 92% 10.0 mph NW16.1 kmh NW 15.0 mph24.1 kmh 30.32 in1026.8 mb 0.00 in0.0 mm 0.00 in0.0 mm 0.09 in2.3 mm
08:39 PM 44.8°F7.1°C 42.3°F5.7°C 91% 8.0 mph WNW12.9 kmh WNW 13.0 mph20.9 kmh 30.32 in1026.8 mb 0.00 in0.0 mm 0.00 in0.0 mm 0.09 in2.3 mm
08:44 PM 45.0°F7.2°C 42.5°F5.8°C 91% 5.0 mph WNW8.0 kmh WNW 9.0 mph14.5 kmh 30.33 in1027.1 mb 0.00 in0.0 mm 0.00 in0.0 mm 0.09 in2.3 mm
08:49 PM 45.0°F7.2°C 42.5°F5.8°C 91% 7.0 mph NW11.3 kmh NW 9.0 mph14.5 kmh 30.33 in1027.1 mb 0.00 in0.0 mm 0.00 in0.0 mm 0.09 in2.3 mm
08:54 PM 45.0°F7.2°C 42.2°F5.7°C 90% 7.0 mph WNW11.3 kmh WNW 12.0 mph19.3 kmh 30.33 in1027.1 mb 0.00 in0.0 mm 0.00 in0.0 mm 0.09 in2.3 mm
08:59 PM 44.8°F7.1°C 42.3°F5.7°C 91% 9.0 mph NW14.5 kmh NW 14.0 mph22.5 kmh 30.33 in1027.1 mb 0.00 in0.0 mm 0.00 in0.0 mm 0.09 in2.3 mm
09:04 PM 44.8°F7.1°C 42.0°F5.6°C 90% 8.0 mph NW12.9 kmh NW 12.0 mph19.3 kmh 30.34 in1027.4 mb 0.00 in0.0 mm 0.00 in0.0 mm 0.09 in2.3 mm
09:09 PM 44.8°F7.1°C 42.0°F5.6°C 90% 9.0 mph NW14.5 kmh NW 13.0 mph20.9 kmh 30.34 in1027.4 mb 0.00 in0.0 mm 0.00 in0.0 mm 0.09 in2.3 mm
09:14 PM 44.8°F7.1°C 42.0°F5.6°C 90% 8.0 mph NW12.9 kmh NW 14.0 mph22.5 kmh 30.34 in1027.4 mb 0.00 in0.0 mm 0.00 in0.0 mm 0.09 in2.3 mm
09:19 PM 44.8°F7.1°C 42.0°F5.6°C 90% 8.0 mph NW12.9 kmh NW 12.0 mph19.3 kmh 30.34 in1027.4 mb 0.00 in0.0 mm 0.00 in0.0 mm 0.09 in2.3 mm
09:24 PM 44.8°F7.1°C 42.3°F5.7°C 91% 8.0 mph NW12.9 kmh NW 13.0 mph20.9 kmh 30.35 in1027.8 mb 0.00 in0.0 mm 0.00 in0.0 mm 0.09 in2.3 mm
09:29 PM 44.6°F7.0°C 42.1°F5.6°C 91% 7.0 mph WNW11.3 kmh WNW 10.0 mph16.1 kmh 30.34 in1027.4 mb 0.00 in0.0 mm 0.00 in0.0 mm 0.09 in2.3 mm
09:34 PM 44.4°F6.9°C 42.0°F5.6°C 91% 9.0 mph WNW14.5 kmh WNW 16.0 mph25.7 kmh 30.34 in1027.4 mb 0.00 in0.0 mm 0.00 in0.0 mm 0.09 in2.3 mm
09:39 PM 44.4°F6.9°C 41.7°F5.4°C 90% 7.0 mph NW11.3 kmh NW 13.0 mph20.9 kmh 30.35 in1027.8 mb 0.00 in0.0 mm 0.00 in0.0 mm 0.09 in2.3 mm
09:44 PM 44.4°F6.9°C 41.7°F5.4°C 90% 8.0 mph NW12.9 kmh NW 12.0 mph19.3 kmh 30.35 in1027.8 mb 0.00 in0.0 mm 0.00 in0.0 mm 0.09 in2.3 mm
09:49 PM 44.4°F6.9°C 41.7°F5.4°C 90% 9.0 mph WNW14.5 kmh WNW 14.0 mph22.5 kmh 30.35 in1027.8 mb 0.00 in0.0 mm 0.00 in0.0 mm 0.09 in2.3 mm
09:54 PM 44.4°F6.9°C 41.4°F5.2°C 89% 9.0 mph WNW14.5 kmh WNW 11.0 mph17.7 kmh 30.35 in1027.8 mb 0.00 in0.0 mm 0.00 in0.0 mm 0.09 in2.3 mm
09:59 PM 44.2°F6.8°C 41.2°F5.1°C 89% 8.0 mph NW12.9 kmh NW 12.0 mph19.3 kmh 30.35 in1027.8 mb 0.00 in0.0 mm 0.00 in0.0 mm 0.09 in2.3 mm
10:04 PM 44.2°F6.8°C 41.2°F5.1°C 89% 7.0 mph NW11.3 kmh NW 12.0 mph19.3 kmh 30.35 in1027.8 mb 0.00 in0.0 mm 0.00 in0.0 mm 0.09 in2.3 mm
10:09 PM 44.2°F6.8°C 41.2°F5.1°C 89% 7.0 mph NW11.3 kmh NW 11.0 mph17.7 kmh 30.35 in1027.8 mb 0.00 in0.0 mm 0.00 in0.0 mm 0.09 in2.3 mm
10:14 PM 44.2°F6.8°C 40.9°F4.9°C 88% 6.0 mph WNW9.7 kmh WNW 9.0 mph14.5 kmh 30.36 in1028.1 mb 0.00 in0.0 mm 0.00 in0.0 mm 0.09 in2.3 mm
10:19 PM 44.2°F6.8°C 40.9°F4.9°C 88% 8.0 mph NW12.9 kmh NW 11.0 mph17.7 kmh 30.36 in1028.1 mb 0.00 in0.0 mm 0.00 in0.0 mm 0.09 in2.3 mm
10:24 PM 44.2°F6.8°C 40.9°F4.9°C 88% 9.0 mph NW14.5 kmh NW 12.0 mph19.3 kmh 30.36 in1028.1 mb 0.00 in0.0 mm 0.00 in0.0 mm 0.09 in2.3 mm
10:29 PM 44.2°F6.8°C 40.6°F4.8°C 87% 9.0 mph WNW14.5 kmh WNW 16.0 mph25.7 kmh 30.36 in1028.1 mb 0.00 in0.0 mm 0.00 in0.0 mm 0.09 in2.3 mm
10:34 PM 44.2°F6.8°C 40.6°F4.8°C 87% 9.0 mph WNW14.5 kmh WNW 12.0 mph19.3 kmh 30.37 in1028.4 mb 0.00 in0.0 mm 0.00 in0.0 mm 0.09 in2.3 mm
10:39 PM 44.2°F6.8°C 40.6°F4.8°C 87% 8.0 mph NW12.9 kmh NW 12.0 mph19.3 kmh 30.37 in1028.4 mb 0.00 in0.0 mm 0.00 in0.0 mm 0.09 in2.3 mm
10:44 PM 44.2°F6.8°C 40.6°F4.8°C 87% 8.0 mph NW12.9 kmh NW 13.0 mph20.9 kmh 30.37 in1028.4 mb 0.00 in0.0 mm 0.00 in0.0 mm 0.09 in2.3 mm
10:49 PM 44.1°F6.7°C 40.4°F4.7°C 87% 7.0 mph WNW11.3 kmh WNW 10.0 mph16.1 kmh 30.37 in1028.4 mb 0.00 in0.0 mm 0.00 in0.0 mm 0.09 in2.3 mm
10:54 PM 44.1°F6.7°C 40.4°F4.7°C 87% 10.0 mph WNW16.1 kmh WNW 14.0 mph22.5 kmh 30.37 in1028.4 mb 0.00 in0.0 mm 0.00 in0.0 mm 0.09 in2.3 mm
10:59 PM 44.1°F6.7°C 40.4°F4.7°C 87% 10.0 mph NW16.1 kmh NW 15.0 mph24.1 kmh 30.37 in1028.4 mb 0.00 in0.0 mm 0.00 in0.0 mm 0.09 in2.3 mm
11:04 PM 44.1°F6.7°C 40.4°F4.7°C 87% 9.0 mph NW14.5 kmh NW 13.0 mph20.9 kmh 30.37 in1028.4 mb 0.00 in0.0 mm 0.00 in0.0 mm 0.09 in2.3 mm
11:09 PM 44.1°F6.7°C 40.4°F4.7°C 87% 8.0 mph NW12.9 kmh NW 11.0 mph17.7 kmh 30.38 in1028.8 mb 0.00 in0.0 mm 0.00 in0.0 mm 0.09 in2.3 mm
11:14 PM 44.1°F6.7°C 40.4°F4.7°C 87% 8.0 mph NW12.9 kmh NW 10.0 mph16.1 kmh 30.38 in1028.8 mb 0.00 in0.0 mm 0.00 in0.0 mm 0.09 in2.3 mm
11:19 PM 43.9°F6.6°C 40.3°F4.6°C 87% 5.0 mph NW8.0 kmh NW 8.0 mph12.9 kmh 30.38 in1028.8 mb 0.00 in0.0 mm 0.00 in0.0 mm 0.09 in2.3 mm
11:24 PM 43.9°F6.6°C 40.6°F4.8°C 88% 7.0 mph WNW11.3 kmh WNW 11.0 mph17.7 kmh 30.38 in1028.8 mb 0.00 in0.0 mm 0.00 in0.0 mm 0.09 in2.3 mm
11:29 PM 43.9°F6.6°C 40.6°F4.8°C 88% 7.0 mph NW11.3 kmh NW 12.0 mph19.3 kmh 30.39 in1029.1 mb 0.00 in0.0 mm 0.00 in0.0 mm 0.09 in2.3 mm
11:34 PM 43.9°F6.6°C 40.9°F4.9°C 89% 8.0 mph WNW12.9 kmh WNW 10.0 mph16.1 kmh 30.39 in1029.1 mb 0.00 in0.0 mm 0.00 in0.0 mm 0.09 in2.3 mm
11:39 PM 43.9°F6.6°C 40.6°F4.8°C 88% 4.0 mph NW6.4 kmh NW 9.0 mph14.5 kmh 30.39 in1029.1 mb 0.00 in0.0 mm 0.00 in0.0 mm 0.09 in2.3 mm
11:44 PM 43.9°F6.6°C 40.6°F4.8°C 88% 8.0 mph WNW12.9 kmh WNW 11.0 mph17.7 kmh 30.39 in1029.1 mb 0.00 in0.0 mm 0.00 in0.0 mm 0.09 in2.3 mm
11:49 PM 43.9°F6.6°C 40.3°F4.6°C 87% 6.0 mph WNW9.7 kmh WNW 8.0 mph12.9 kmh 30.39 in1029.1 mb 0.00 in0.0 mm 0.00 in0.0 mm 0.09 in2.3 mm
11:54 PM 43.9°F6.6°C 40.3°F4.6°C 87% 7.0 mph NW11.3 kmh NW 11.0 mph17.7 kmh 30.40 in1029.5 mb 0.00 in0.0 mm 0.00 in0.0 mm 0.09 in2.3 mm
11:59 PM 43.9°F6.6°C 40.3°F4.6°C 87% 6.0 mph WNW9.7 kmh WNW 10.0 mph16.1 kmh 30.40 in1029.5 mb 0.00 in0.0 mm 0.00 in0.0 mm 0.09 in2.3 mm